sensor_id;sensor_type;location;lat;lon;timestamp;P1;durP1;ratioP1;P2;durP2;ratioP2
36371;SDS011;22398;51.346;12.372;2023-02-28T00:00:59;4.10;;;2.03;;
36371;SDS011;22398;51.346;12.372;2023-02-28T00:06:03;7.45;;;2.38;;
36371;SDS011;22398;51.346;12.372;2023-02-28T00:11:09;5.30;;;2.78;;
36371;SDS011;22398;51.346;12.372;2023-02-28T00:16:15;5.47;;;3.00;;
36371;SDS011;22398;51.346;12.372;2023-02-28T00:21:20;4.75;;;2.10;;
36371;SDS011;22398;51.346;12.372;2023-02-28T00:26:24;6.68;;;2.83;;
36371;SDS011;22398;51.346;12.372;2023-02-28T00:31:29;5.35;;;2.20;;
36371;SDS011;22398;51.346;12.372;2023-02-28T00:36:32;6.10;;;2.55;;
36371;SDS011;22398;51.346;12.372;2023-02-28T00:41:38;5.28;;;2.22;;
36371;SDS011;22398;51.346;12.372;2023-02-28T00:46:43;11.25;;;3.33;;
36371;SDS011;22398;51.346;12.372;2023-02-28T00:51:46;5.43;;;2.67;;
36371;SDS011;22398;51.346;12.372;2023-02-28T00:56:50;4.63;;;2.22;;
36371;SDS011;22398;51.346;12.372;2023-02-28T01:01:54;3.75;;;2.35;;
36371;SDS011;22398;51.346;12.372;2023-02-28T01:06:58;5.97;;;2.57;;
36371;SDS011;22398;51.346;12.372;2023-02-28T01:12:02;10.05;;;3.20;;
36371;SDS011;22398;51.346;12.372;2023-02-28T01:17:08;4.70;;;2.55;;
36371;SDS011;22398;51.346;12.372;2023-02-28T01:22:12;5.85;;;2.97;;
36371;SDS011;22398;51.346;12.372;2023-02-28T01:27:16;6.95;;;3.05;;
36371;SDS011;22398;51.346;12.372;2023-02-28T01:32:21;4.35;;;2.65;;
36371;SDS011;22398;51.346;12.372;2023-02-28T01:37:24;6.73;;;2.40;;
36371;SDS011;22398;51.346;12.372;2023-02-28T01:42:28;4.50;;;2.30;;
36371;SDS011;22398;51.346;12.372;2023-02-28T01:47:33;6.13;;;2.47;;
36371;SDS011;22398;51.346;12.372;2023-02-28T01:52:40;3.58;;;1.85;;
36371;SDS011;22398;51.346;12.372;2023-02-28T01:57:45;5.68;;;2.40;;
36371;SDS011;22398;51.346;12.372;2023-02-28T02:02:56;7.10;;;2.58;;
36371;SDS011;22398;51.346;12.372;2023-02-28T02:08:02;5.78;;;2.55;;
36371;SDS011;22398;51.346;12.372;2023-02-28T02:13:13;6.25;;;2.90;;
36371;SDS011;22398;51.346;12.372;2023-02-28T02:18:38;5.00;;;2.50;;
36371;SDS011;22398;51.346;12.372;2023-02-28T02:23:59;4.85;;;2.28;;
36371;SDS011;22398;51.346;12.372;2023-02-28T02:29:42;6.25;;;2.65;;
36371;SDS011;22398;51.346;12.372;2023-02-28T02:35:07;9.10;;;2.80;;
36371;SDS011;22398;51.346;12.372;2023-02-28T02:40:18;4.75;;;2.42;;
36371;SDS011;22398;51.346;12.372;2023-02-28T02:45:24;5.53;;;2.55;;
36371;SDS011;22398;51.346;12.372;2023-02-28T02:50:38;6.68;;;2.80;;
36371;SDS011;22398;51.346;12.372;2023-02-28T02:55:46;5.18;;;2.35;;
36371;SDS011;22398;51.346;12.372;2023-02-28T03:00:55;4.50;;;2.25;;
36371;SDS011;22398;51.346;12.372;2023-02-28T03:06:04;6.32;;;2.85;;
36371;SDS011;22398;51.346;12.372;2023-02-28T03:11:10;5.93;;;2.80;;
36371;SDS011;22398;51.346;12.372;2023-02-28T03:21:40;8.27;;;2.33;;
36371;SDS011;22398;51.346;12.372;2023-02-28T03:26:50;4.80;;;2.22;;
36371;SDS011;22398;51.346;12.372;2023-02-28T03:32:03;6.53;;;2.65;;
36371;SDS011;22398;51.346;12.372;2023-02-28T03:37:18;8.50;;;2.92;;
36371;SDS011;22398;51.346;12.372;2023-02-28T03:42:25;8.70;;;2.70;;
36371;SDS011;22398;51.346;12.372;2023-02-28T03:47:31;5.80;;;2.25;;
36371;SDS011;22398;51.346;12.372;2023-02-28T03:52:42;6.82;;;2.47;;
36371;SDS011;22398;51.346;12.372;2023-02-28T03:57:51;7.78;;;2.30;;
36371;SDS011;22398;51.346;12.372;2023-02-28T04:02:59;7.97;;;2.33;;
36371;SDS011;22398;51.346;12.372;2023-02-28T04:13:21;6.95;;;3.22;;
36371;SDS011;22398;51.346;12.372;2023-02-28T04:18:24;15.77;;;2.77;;
36371;SDS011;22398;51.346;12.372;2023-02-28T04:23:27;6.93;;;3.17;;
36371;SDS011;22398;51.346;12.372;2023-02-28T04:28:32;5.72;;;2.28;;
36371;SDS011;22398;51.346;12.372;2023-02-28T04:33:36;7.40;;;2.90;;
36371;SDS011;22398;51.346;12.372;2023-02-28T04:38:39;5.47;;;2.78;;
36371;SDS011;22398;51.346;12.372;2023-02-28T04:43:44;4.07;;;2.25;;
36371;SDS011;22398;51.346;12.372;2023-02-28T04:48:47;11.57;;;2.93;;
36371;SDS011;22398;51.346;12.372;2023-02-28T04:53:51;8.13;;;2.47;;
36371;SDS011;22398;51.346;12.372;2023-02-28T04:58:56;6.65;;;2.15;;
36371;SDS011;22398;51.346;12.372;2023-02-28T05:04:01;6.90;;;2.20;;
36371;SDS011;22398;51.346;12.372;2023-02-28T05:09:06;6.72;;;2.90;;
36371;SDS011;22398;51.346;12.372;2023-02-28T05:14:12;6.55;;;2.80;;
36371;SDS011;22398;51.346;12.372;2023-02-28T05:19:17;10.52;;;2.75;;
36371;SDS011;22398;51.346;12.372;2023-02-28T05:24:20;5.35;;;2.75;;
36371;SDS011;22398;51.346;12.372;2023-02-28T05:29:26;7.97;;;2.77;;
36371;SDS011;22398;51.346;12.372;2023-02-28T05:34:30;6.35;;;3.15;;
36371;SDS011;22398;51.346;12.372;2023-02-28T05:39:33;10.07;;;2.38;;
36371;SDS011;22398;51.346;12.372;2023-02-28T05:44:38;11.73;;;3.15;;
36371;SDS011;22398;51.346;12.372;2023-02-28T05:49:42;11.87;;;3.13;;
36371;SDS011;22398;51.346;12.372;2023-02-28T05:54:45;10.20;;;3.53;;
36371;SDS011;22398;51.346;12.372;2023-02-28T05:59:50;11.60;;;3.40;;
36371;SDS011;22398;51.346;12.372;2023-02-28T06:04:54;9.30;;;3.30;;
36371;SDS011;22398;51.346;12.372;2023-02-28T06:09:57;8.57;;;3.22;;
36371;SDS011;22398;51.346;12.372;2023-02-28T06:15:02;10.15;;;3.33;;
36371;SDS011;22398;51.346;12.372;2023-02-28T06:20:06;7.40;;;3.33;;
36371;SDS011;22398;51.346;12.372;2023-02-28T06:25:10;7.57;;;3.03;;
36371;SDS011;22398;51.346;12.372;2023-02-28T06:30:15;7.97;;;3.28;;
36371;SDS011;22398;51.346;12.372;2023-02-28T06:35:19;6.85;;;3.03;;
36371;SDS011;22398;51.346;12.372;2023-02-28T06:40:22;7.22;;;3.40;;
36371;SDS011;22398;51.346;12.372;2023-02-28T06:45:27;8.15;;;3.42;;
36371;SDS011;22398;51.346;12.372;2023-02-28T06:50:30;9.03;;;3.10;;
36371;SDS011;22398;51.346;12.372;2023-02-28T06:55:34;11.75;;;3.80;;
36371;SDS011;22398;51.346;12.372;2023-02-28T07:00:42;7.85;;;3.85;;
36371;SDS011;22398;51.346;12.372;2023-02-28T07:05:46;7.90;;;3.53;;
36371;SDS011;22398;51.346;12.372;2023-02-28T07:10:51;13.27;;;3.75;;
36371;SDS011;22398;51.346;12.372;2023-02-28T07:15:57;8.90;;;4.05;;
36371;SDS011;22398;51.346;12.372;2023-02-28T07:21:02;7.30;;;2.83;;
36371;SDS011;22398;51.346;12.372;2023-02-28T07:26:06;8.43;;;3.55;;
36371;SDS011;22398;51.346;12.372;2023-02-28T07:31:15;7.68;;;3.40;;
36371;SDS011;22398;51.346;12.372;2023-02-28T07:36:20;12.65;;;3.90;;
36371;SDS011;22398;51.346;12.372;2023-02-28T07:41:24;5.90;;;3.42;;
36371;SDS011;22398;51.346;12.372;2023-02-28T07:51:37;11.48;;;3.40;;
36371;SDS011;22398;51.346;12.372;2023-02-28T07:56:40;8.43;;;3.13;;
36371;SDS011;22398;51.346;12.372;2023-02-28T08:01:45;7.60;;;3.28;;
36371;SDS011;22398;51.346;12.372;2023-02-28T08:06:51;7.28;;;3.35;;
36371;SDS011;22398;51.346;12.372;2023-02-28T08:11:55;11.93;;;3.65;;
36371;SDS011;22398;51.346;12.372;2023-02-28T08:16:59;7.55;;;3.05;;
36371;SDS011;22398;51.346;12.372;2023-02-28T08:22:03;14.03;;;3.33;;
36371;SDS011;22398;51.346;12.372;2023-02-28T08:27:06;9.75;;;3.83;;
36371;SDS011;22398;51.346;12.372;2023-02-28T08:32:11;12.65;;;3.30;;
36371;SDS011;22398;51.346;12.372;2023-02-28T08:37:29;7.03;;;3.20;;
36371;SDS011;22398;51.346;12.372;2023-02-28T08:42:33;10.95;;;3.40;;
36371;SDS011;22398;51.346;12.372;2023-02-28T08:47:38;10.85;;;2.92;;
36371;SDS011;22398;51.346;12.372;2023-02-28T08:52:42;8.60;;;2.60;;
36371;SDS011;22398;51.346;12.372;2023-02-28T08:57:45;12.00;;;2.53;;
36371;SDS011;22398;51.346;12.372;2023-02-28T09:02:50;7.38;;;2.78;;
36371;SDS011;22398;51.346;12.372;2023-02-28T09:07:53;7.17;;;2.57;;
36371;SDS011;22398;51.346;12.372;2023-02-28T09:12:57;6.40;;;2.67;;
36371;SDS011;22398;51.346;12.372;2023-02-28T09:18:01;11.10;;;3.90;;
36371;SDS011;22398;51.346;12.372;2023-02-28T09:23:05;6.53;;;3.10;;
36371;SDS011;22398;51.346;12.372;2023-02-28T09:28:09;5.18;;;2.92;;
36371;SDS011;22398;51.346;12.372;2023-02-28T09:33:14;6.03;;;3.17;;
36371;SDS011;22398;51.346;12.372;2023-02-28T09:38:18;5.80;;;2.75;;
36371;SDS011;22398;51.346;12.372;2023-02-28T09:43:22;8.20;;;2.90;;
36371;SDS011;22398;51.346;12.372;2023-02-28T09:48:32;10.50;;;2.50;;
36371;SDS011;22398;51.346;12.372;2023-02-28T09:53:41;11.88;;;3.30;;
36371;SDS011;22398;51.346;12.372;2023-02-28T09:58:51;9.68;;;3.70;;
36371;SDS011;22398;51.346;12.372;2023-02-28T10:04:03;8.77;;;3.33;;
36371;SDS011;22398;51.346;12.372;2023-02-28T10:09:12;9.77;;;3.17;;
36371;SDS011;22398;51.346;12.372;2023-02-28T10:14:20;5.03;;;2.80;;
36371;SDS011;22398;51.346;12.372;2023-02-28T10:24:35;7.63;;;3.22;;
36371;SDS011;22398;51.346;12.372;2023-02-28T10:29:43;10.95;;;3.50;;
36371;SDS011;22398;51.346;12.372;2023-02-28T10:34:51;5.13;;;2.57;;
36371;SDS011;22398;51.346;12.372;2023-02-28T10:39:57;9.48;;;3.42;;
36371;SDS011;22398;51.346;12.372;2023-02-28T10:45:10;13.40;;;3.50;;
36371;SDS011;22398;51.346;12.372;2023-02-28T10:50:29;14.25;;;3.30;;
36371;SDS011;22398;51.346;12.372;2023-02-28T10:55:39;8.15;;;2.92;;
36371;SDS011;22398;51.346;12.372;2023-02-28T11:00:42;7.68;;;3.85;;
36371;SDS011;22398;51.346;12.372;2023-02-28T11:05:48;13.35;;;3.13;;
36371;SDS011;22398;51.346;12.372;2023-02-28T11:10:55;9.95;;;3.33;;
36371;SDS011;22398;51.346;12.372;2023-02-28T11:16:01;5.63;;;3.13;;
36371;SDS011;22398;51.346;12.372;2023-02-28T11:21:08;7.28;;;3.13;;
36371;SDS011;22398;51.346;12.372;2023-02-28T11:31:40;9.05;;;3.60;;
36371;SDS011;22398;51.346;12.372;2023-02-28T11:36:45;12.07;;;3.65;;
36371;SDS011;22398;51.346;12.372;2023-02-28T11:41:53;11.97;;;4.53;;
36371;SDS011;22398;51.346;12.372;2023-02-28T11:47:08;8.65;;;4.03;;
36371;SDS011;22398;51.346;12.372;2023-02-28T11:52:29;13.40;;;4.88;;
36371;SDS011;22398;51.346;12.372;2023-02-28T11:57:49;6.88;;;3.25;;
36371;SDS011;22398;51.346;12.372;2023-02-28T12:03:16;8.93;;;4.22;;
36371;SDS011;22398;51.346;12.372;2023-02-28T12:08:35;10.93;;;4.80;;
36371;SDS011;22398;51.346;12.372;2023-02-28T12:13:51;5.55;;;3.47;;
36371;SDS011;22398;51.346;12.372;2023-02-28T12:19:07;12.93;;;4.20;;
36371;SDS011;22398;51.346;12.372;2023-02-28T12:24:29;11.73;;;3.85;;
36371;SDS011;22398;51.346;12.372;2023-02-28T12:29:47;12.53;;;4.53;;
36371;SDS011;22398;51.346;12.372;2023-02-28T12:34:55;8.65;;;4.43;;
36371;SDS011;22398;51.346;12.372;2023-02-28T12:40:06;12.15;;;5.35;;
36371;SDS011;22398;51.346;12.372;2023-02-28T12:45:17;11.63;;;4.85;;
36371;SDS011;22398;51.346;12.372;2023-02-28T12:50:22;10.13;;;5.07;;
36371;SDS011;22398;51.346;12.372;2023-02-28T12:55:29;9.07;;;5.50;;
36371;SDS011;22398;51.346;12.372;2023-02-28T13:00:42;8.38;;;5.05;;
36371;SDS011;22398;51.346;12.372;2023-02-28T13:11:25;8.02;;;4.97;;
36371;SDS011;22398;51.346;12.372;2023-02-28T13:22:17;13.10;;;5.25;;
36371;SDS011;22398;51.346;12.372;2023-02-28T13:27:33;14.27;;;6.13;;
36371;SDS011;22398;51.346;12.372;2023-02-28T13:32:40;10.82;;;5.13;;
36371;SDS011;22398;51.346;12.372;2023-02-28T13:37:45;8.38;;;4.90;;
36371;SDS011;22398;51.346;12.372;2023-02-28T13:42:54;11.50;;;5.38;;
36371;SDS011;22398;51.346;12.372;2023-02-28T13:47:58;12.77;;;5.93;;
36371;SDS011;22398;51.346;12.372;2023-02-28T13:58:48;11.85;;;4.93;;
36371;SDS011;22398;51.346;12.372;2023-02-28T14:03:59;10.18;;;5.55;;
36371;SDS011;22398;51.346;12.372;2023-02-28T14:09:17;9.95;;;5.75;;
36371;SDS011;22398;51.346;12.372;2023-02-28T14:20:01;13.77;;;5.65;;
36371;SDS011;22398;51.346;12.372;2023-02-28T14:25:09;11.77;;;5.23;;
36371;SDS011;22398;51.346;12.372;2023-02-28T14:30:36;10.23;;;5.57;;
36371;SDS011;22398;51.346;12.372;2023-02-28T14:35:51;9.70;;;5.80;;
36371;SDS011;22398;51.346;12.372;2023-02-28T14:41:12;9.23;;;5.10;;
36371;SDS011;22398;51.346;12.372;2023-02-28T14:46:21;12.02;;;6.18;;
36371;SDS011;22398;51.346;12.372;2023-02-28T14:51:29;9.45;;;5.43;;
36371;SDS011;22398;51.346;12.372;2023-02-28T14:56:34;11.07;;;5.55;;
36371;SDS011;22398;51.346;12.372;2023-02-28T15:01:45;9.85;;;5.70;;
36371;SDS011;22398;51.346;12.372;2023-02-28T15:07:13;11.98;;;6.03;;
36371;SDS011;22398;51.346;12.372;2023-02-28T15:12:17;8.65;;;5.30;;
36371;SDS011;22398;51.346;12.372;2023-02-28T15:17:22;10.75;;;5.82;;
36371;SDS011;22398;51.346;12.372;2023-02-28T15:22:27;15.90;;;5.07;;
36371;SDS011;22398;51.346;12.372;2023-02-28T15:27:39;8.90;;;5.15;;
36371;SDS011;22398;51.346;12.372;2023-02-28T15:33:04;14.65;;;5.88;;
36371;SDS011;22398;51.346;12.372;2023-02-28T15:38:13;11.55;;;5.35;;
36371;SDS011;22398;51.346;12.372;2023-02-28T15:43:23;12.05;;;5.63;;
36371;SDS011;22398;51.346;12.372;2023-02-28T15:48:29;8.25;;;5.15;;
36371;SDS011;22398;51.346;12.372;2023-02-28T15:53:36;11.35;;;5.63;;
36371;SDS011;22398;51.346;12.372;2023-02-28T15:58:43;10.85;;;5.22;;
36371;SDS011;22398;51.346;12.372;2023-02-28T16:03:49;11.40;;;5.30;;
36371;SDS011;22398;51.346;12.372;2023-02-28T16:09:07;11.82;;;5.65;;
36371;SDS011;22398;51.346;12.372;2023-02-28T16:14:14;8.45;;;5.20;;
36371;SDS011;22398;51.346;12.372;2023-02-28T16:19:21;9.60;;;5.68;;
36371;SDS011;22398;51.346;12.372;2023-02-28T16:24:25;10.77;;;5.03;;
36371;SDS011;22398;51.346;12.372;2023-02-28T16:29:29;14.95;;;6.50;;
36371;SDS011;22398;51.346;12.372;2023-02-28T16:34:36;13.50;;;7.18;;
36371;SDS011;22398;51.346;12.372;2023-02-28T16:39:40;22.48;;;7.18;;
36371;SDS011;22398;51.346;12.372;2023-02-28T16:44:43;19.00;;;7.38;;
36371;SDS011;22398;51.346;12.372;2023-02-28T16:49:49;18.58;;;7.82;;
36371;SDS011;22398;51.346;12.372;2023-02-28T16:54:53;17.95;;;7.28;;
36371;SDS011;22398;51.346;12.372;2023-02-28T16:59:56;17.05;;;6.70;;
36371;SDS011;22398;51.346;12.372;2023-02-28T17:05:01;15.73;;;7.05;;
36371;SDS011;22398;51.346;12.372;2023-02-28T17:10:08;15.30;;;6.87;;
36371;SDS011;22398;51.346;12.372;2023-02-28T17:15:15;15.98;;;7.80;;
36371;SDS011;22398;51.346;12.372;2023-02-28T17:20:21;15.35;;;8.25;;
36371;SDS011;22398;51.346;12.372;2023-02-28T17:25:26;21.77;;;8.25;;
36371;SDS011;22398;51.346;12.372;2023-02-28T17:30:29;22.35;;;7.72;;
36371;SDS011;22398;51.346;12.372;2023-02-28T17:35:36;19.02;;;8.40;;
36371;SDS011;22398;51.346;12.372;2023-02-28T17:40:40;17.75;;;7.72;;
36371;SDS011;22398;51.346;12.372;2023-02-28T17:45:43;13.60;;;6.95;;
36371;SDS011;22398;51.346;12.372;2023-02-28T17:50:48;16.85;;;8.38;;
36371;SDS011;22398;51.346;12.372;2023-02-28T17:55:51;19.65;;;8.45;;
36371;SDS011;22398;51.346;12.372;2023-02-28T18:00:54;19.60;;;8.52;;
36371;SDS011;22398;51.346;12.372;2023-02-28T18:06:00;18.73;;;8.63;;
36371;SDS011;22398;51.346;12.372;2023-02-28T18:11:05;13.13;;;7.60;;
36371;SDS011;22398;51.346;12.372;2023-02-28T18:16:19;18.98;;;8.48;;
36371;SDS011;22398;51.346;12.372;2023-02-28T18:21:25;19.73;;;8.35;;
36371;SDS011;22398;51.346;12.372;2023-02-28T18:31:33;21.17;;;7.30;;
36371;SDS011;22398;51.346;12.372;2023-02-28T18:36:38;19.90;;;8.38;;
36371;SDS011;22398;51.346;12.372;2023-02-28T18:41:43;21.67;;;8.85;;
36371;SDS011;22398;51.346;12.372;2023-02-28T18:46:46;16.73;;;8.07;;
36371;SDS011;22398;51.346;12.372;2023-02-28T18:51:51;32.95;;;10.13;;
36371;SDS011;22398;51.346;12.372;2023-02-28T18:56:55;21.15;;;9.85;;
36371;SDS011;22398;51.346;12.372;2023-02-28T19:01:59;24.42;;;10.57;;
36371;SDS011;22398;51.346;12.372;2023-02-28T19:07:04;27.17;;;9.98;;
36371;SDS011;22398;51.346;12.372;2023-02-28T19:12:08;23.25;;;9.85;;
36371;SDS011;22398;51.346;12.372;2023-02-28T19:17:11;21.88;;;9.25;;
36371;SDS011;22398;51.346;12.372;2023-02-28T19:22:18;24.83;;;10.25;;
36371;SDS011;22398;51.346;12.372;2023-02-28T19:27:21;26.33;;;9.93;;
36371;SDS011;22398;51.346;12.372;2023-02-28T19:32:25;26.13;;;10.38;;
36371;SDS011;22398;51.346;12.372;2023-02-28T19:37:30;18.42;;;10.00;;
36371;SDS011;22398;51.346;12.372;2023-02-28T19:42:33;30.30;;;11.27;;
36371;SDS011;22398;51.346;12.372;2023-02-28T19:47:37;26.88;;;12.45;;
36371;SDS011;22398;51.346;12.372;2023-02-28T19:52:42;29.55;;;12.90;;
36371;SDS011;22398;51.346;12.372;2023-02-28T19:57:46;33.27;;;11.47;;
36371;SDS011;22398;51.346;12.372;2023-02-28T20:02:49;27.92;;;11.80;;
36371;SDS011;22398;51.346;12.372;2023-02-28T20:07:54;29.63;;;10.75;;
36371;SDS011;22398;51.346;12.372;2023-02-28T20:12:58;24.52;;;11.18;;
36371;SDS011;22398;51.346;12.372;2023-02-28T20:18:01;26.83;;;11.10;;
36371;SDS011;22398;51.346;12.372;2023-02-28T20:23:06;23.15;;;11.27;;
36371;SDS011;22398;51.346;12.372;2023-02-28T20:28:10;27.35;;;12.00;;
36371;SDS011;22398;51.346;12.372;2023-02-28T20:33:14;25.25;;;11.90;;
36371;SDS011;22398;51.346;12.372;2023-02-28T20:38:18;24.52;;;10.57;;
36371;SDS011;22398;51.346;12.372;2023-02-28T20:43:22;15.02;;;7.57;;
36371;SDS011;22398;51.346;12.372;2023-02-28T20:48:26;22.95;;;9.10;;
36371;SDS011;22398;51.346;12.372;2023-02-28T20:53:32;23.33;;;10.68;;
36371;SDS011;22398;51.346;12.372;2023-02-28T20:58:37;22.33;;;11.75;;
36371;SDS011;22398;51.346;12.372;2023-02-28T21:03:40;23.38;;;10.23;;
36371;SDS011;22398;51.346;12.372;2023-02-28T21:08:45;18.33;;;9.32;;
36371;SDS011;22398;51.346;12.372;2023-02-28T21:13:48;20.17;;;9.53;;
36371;SDS011;22398;51.346;12.372;2023-02-28T21:18:52;27.13;;;11.00;;
36371;SDS011;22398;51.346;12.372;2023-02-28T21:23:57;29.70;;;11.32;;
36371;SDS011;22398;51.346;12.372;2023-02-28T21:29:01;33.10;;;13.00;;
36371;SDS011;22398;51.346;12.372;2023-02-28T21:34:05;23.65;;;11.05;;
36371;SDS011;22398;51.346;12.372;2023-02-28T21:49:19;26.17;;;11.13;;
36371;SDS011;22398;51.346;12.372;2023-02-28T21:54:24;18.35;;;9.10;;
36371;SDS011;22398;51.346;12.372;2023-02-28T21:59:27;22.30;;;10.40;;
36371;SDS011;22398;51.346;12.372;2023-02-28T22:04:30;31.35;;;10.60;;
36371;SDS011;22398;51.346;12.372;2023-02-28T22:09:35;23.80;;;9.80;;
36371;SDS011;22398;51.346;12.372;2023-02-28T22:14:38;27.03;;;11.47;;
36371;SDS011;22398;51.346;12.372;2023-02-28T22:19:42;22.35;;;9.85;;
36371;SDS011;22398;51.346;12.372;2023-02-28T22:24:47;20.83;;;9.30;;
36371;SDS011;22398;51.346;12.372;2023-02-28T22:29:51;19.50;;;8.33;;
36371;SDS011;22398;51.346;12.372;2023-02-28T22:34:56;20.55;;;9.05;;
36371;SDS011;22398;51.346;12.372;2023-02-28T22:40:01;18.55;;;9.45;;
36371;SDS011;22398;51.346;12.372;2023-02-28T22:45:05;21.75;;;10.35;;
36371;SDS011;22398;51.346;12.372;2023-02-28T22:50:10;25.60;;;9.30;;
36371;SDS011;22398;51.346;12.372;2023-02-28T22:55:15;20.50;;;9.15;;
36371;SDS011;22398;51.346;12.372;2023-02-28T23:00:19;18.48;;;9.23;;
36371;SDS011;22398;51.346;12.372;2023-02-28T23:05:22;21.00;;;9.45;;
36371;SDS011;22398;51.346;12.372;2023-02-28T23:10:27;22.65;;;8.55;;
36371;SDS011;22398;51.346;12.372;2023-02-28T23:15:31;22.05;;;8.95;;
36371;SDS011;22398;51.346;12.372;2023-02-28T23:20:35;21.85;;;10.07;;
36371;SDS011;22398;51.346;12.372;2023-02-28T23:25:40;23.67;;;10.05;;
36371;SDS011;22398;51.346;12.372;2023-02-28T23:30:44;22.20;;;10.35;;
36371;SDS011;22398;51.346;12.372;2023-02-28T23:35:48;21.38;;;10.02;;
36371;SDS011;22398;51.346;12.372;2023-02-28T23:40:53;21.67;;;8.95;;
36371;SDS011;22398;51.346;12.372;2023-02-28T23:45:56;21.85;;;10.38;;
36371;SDS011;22398;51.346;12.372;2023-02-28T23:51:00;17.20;;;10.15;;
36371;SDS011;22398;51.346;12.372;2023-02-28T23:56:07;27.73;;;10.98;;
